METAR Data
IDs: Format: Raw Decoded Include TAF

Data at: 0424 UTC 26 Sep 2018

KSUA 260415Z AUTO 14004KT 10SM SCT120 27/23 A3013 RMK AO2
KSUA 260355Z AUTO 13004KT 10SM SCT110 27/23 A3013 RMK AO2
KSUA 260335Z AUTO 13004KT 10SM SCT090 BKN120 27/23 A3013 RMK AO2
KSUA 260315Z AUTO 14004KT 10SM CLR 27/23 A3012 RMK AO2
KSUA 260255Z AUTO 14003KT 10SM CLR 27/23 A3012 RMK AO2
KSUA 260235Z AUTO 15003KT 10SM CLR 27/23 A3012 RMK AO2 LTG DSNT W
KSUA 260215Z AUTO 14005KT 10SM CLR 27/23 A3011 RMK AO2 LTG DSNT NE AND W
KSUA 260155Z AUTO 13004KT 10SM CLR 27/23 A3011 RMK AO2 LTG DSNT NE AND W
KSUA 260047Z 12006KT 7SM VCSH SCT015 28/23 A3008
KSUA 252347Z 12006KT 7SM VCSH SCT015 28/24 A3006
KSUA 252247Z 11008KT 7SM VCSH SCT015 29/24 A3004
KSUA 252147Z 11010KT 7SM VCSH SCT015 30/24 A3004
KSUA 252047Z 11010KT 7SM VCTS SCT015 29/25 A3005
KSUA 251947Z 09010KT 7SM VCTS SCT015 BKN024 30/24 A3005
KSUA 251847Z 09010KT 7SM VCTS SCT025 32/24 A3007
KSUA 251747Z 09008KT 7SM VCTS SCT025 31/24 A3009
KSUA 251647Z 10008KT 7SM VCTS SCT020 30/24 A3010
KSUA 251548Z 12008KT 7SM VCTS SCT020 30/24 A3010
KSUA 251448Z 09006KT 7SM VCTS SCT020 30/24 A3011
KSUA 251350Z 10007KT 7SM SCT024 31/25 A3009
KSUA 251250Z VRB05KT 7SM BKN021 28/24 A3008
KSUA 251150Z COR 18006G12KT 7SM VCTS BKN021 29/24 A3007
KSUA 251050Z 07008KT 7SM SCT018 28/25 A3005
KSUA 251035Z AUTO 08007KT 10SM SCT018 SCT022 27/24 A3005 RMK AO2
KSUA 251015Z AUTO 08004KT 10SM SCT018 SCT022 SCT044 27/25 A3005 RMK AO2
KSUA 250955Z AUTO 09007KT 10SM SCT024 SCT031 BKN043 28/22 A3005 RMK AO2
KSUA 250935Z AUTO 10010KT 10SM VCTS SCT018 SCT023 SCT034 28/24 A3004 RMK AO2 LTG DSNT E
KSUA 250915Z AUTO 10009KT 10SM VCTS SCT021 SCT027 BKN034 28/24 A3004 RMK AO2 LTG DSNT SW THRU NW
KSUA 250855Z AUTO 08010KT 10SM SCT019 BKN027 BKN034 28/24 A3004 RMK AO2 LTG DSNT S AND SW
KSUA 250835Z AUTO 09008KT 10SM TS SCT021 BKN027 OVC080 28/24 A3004 RMK AO2 LTG DSNT SE THRU SW
KSUA 250815Z AUTO 07010KT 10SM SCT023 BKN027 BKN042 28/24 A3004 RMK AO2 LTG DSNT S
KSUA 250735Z AUTO 08009KT 10SM SCT021 SCT028 SCT035 28/24 A3003 RMK AO2
KSUA 250715Z AUTO 07010KT 10SM SCT021 SCT026 SCT032 28/23 A3003 RMK AO2 LTG DSNT SE
KSUA 250655Z AUTO 08009KT 10SM SCT021 SCT028 SCT034 28/24 A3004 RMK AO2 LTG DSNT SE
KSUA 250635Z AUTO 08010KT 10SM SCT021 BKN030 BKN039 28/24 A3004 RMK AO2 LTG DSNT SE
KSUA 250615Z AUTO 08009KT 10SM SCT021 SCT030 BKN041 28/24 A3005 RMK AO2 LTG DSNT SE
KSUA 250555Z AUTO 07008KT 10SM SCT021 SCT029 SCT041 28/24 A3005 RMK AO2
KSUA 250515Z AUTO 08009KT 10SM SCT021 SCT029 SCT033 28/24 A3006 RMK AO2
KSUA 250455Z AUTO 07010KT 10SM SCT021 SCT032 28/24 A3007 RMK AO2
KSUA 250435Z AUTO 08009G15KT 10SM VCTS SCT018 SCT023 28/25 A3006 RMK AO2 LTG DSNT SE
KSUA 250415Z AUTO 08009KT 10SM SCT017 28/25 A3007 RMK AO2 LTG DSNT SE
KSUA 250355Z AUTO 08007KT 10SM CLR 28/23 A3008 RMK AO2
KSUA 250335Z AUTO 09008KT 10SM SCT021 SCT026 SCT033 28/22 A3008 RMK AO2
KSUA 250315Z AUTO 08007KT 10SM SCT024 SCT033 28/24 A3008 RMK AO2
KSUA 250255Z AUTO 08009KT 10SM CLR 28/24 A3007 RMK AO2
KSUA 250235Z AUTO 09007KT 10SM SCT020 SCT025 SCT030 28/24 A3007 RMK AO2
KSUA 250215Z AUTO 08009KT 10SM SCT023 29/23 A3007 RMK AO2
KSUA 250155Z AUTO 09006KT 10SM SCT025 SCT031 29/24 A3006 RMK AO2
KSUA 250148Z 07008KT 7SM SCT024 29/24 A3005
KSUA 250050Z 08008KT 7SM SCT018 SCT023 29/24 A3003
KSUA 242348Z 09010KT 7SM SCT018 SCT030 29/24 A3001
KSUA 242248Z 09008KT 7SM FEW025 30/23 A3000
KSUA 242148Z 09010KT 7SM FEW025 31/23 A3000
KSUA 242048Z 10010KT 7SM FEW025 32/23 A3000
KSUA 241948Z 09008G15KT 7SM SCT025 31/24 A3001
KSUA 241848Z 11012KT 7SM VCTS SCT025 31/25 A3003
KSUA 241750Z 10012KT 7SM SCT030 32/24 A3004
KSUA 241647Z 10009KT 7SM SCT024 32/24 A3006